createdAt,value
2019-03-22T00:00:39.809Z,9.17
2019-03-22T00:03:08.312Z,8.10
2019-03-22T00:05:36.874Z,8.83
2019-03-22T00:08:05.426Z,8.00
2019-03-22T00:10:33.974Z,8.03
2019-03-22T00:13:02.499Z,8.03
2019-03-22T00:15:31.024Z,7.37
2019-03-22T00:17:59.598Z,6.87
2019-03-22T00:20:28.123Z,5.93
2019-03-22T00:22:56.689Z,6.13
2019-03-22T00:25:25.197Z,6.40
2019-03-22T00:27:53.689Z,6.30
2019-03-22T00:30:22.209Z,6.97
2019-03-22T00:32:50.679Z,6.77
2019-03-22T00:35:19.190Z,7.20
2019-03-22T00:37:47.772Z,6.73
2019-03-22T00:40:16.393Z,7.00
2019-03-22T00:42:45.042Z,6.13
2019-03-22T00:45:13.888Z,5.50
2019-03-22T00:48:01.906Z,5.33
2019-03-22T00:50:30.521Z,5.80
2019-03-22T00:52:59.131Z,5.60
2019-03-22T00:55:27.688Z,5.47
2019-03-22T00:58:11.608Z,5.70
2019-03-22T01:00:40.149Z,5.47
2019-03-22T01:03:08.735Z,5.47
2019-03-22T01:05:37.322Z,6.20
2019-03-22T01:08:06.288Z,5.90
2019-03-22T01:10:34.897Z,5.53
2019-03-22T01:13:03.491Z,6.17
2019-03-22T01:15:32.111Z,6.13
2019-03-22T01:18:00.759Z,6.07
2019-03-22T01:20:29.353Z,5.73
2019-03-22T01:22:57.948Z,5.67
2019-03-22T01:25:26.583Z,7.10
2019-03-22T01:27:55.133Z,5.90
2019-03-22T01:30:23.781Z,6.03
2019-03-22T01:32:52.365Z,6.23
2019-03-22T01:35:20.946Z,5.90
2019-03-22T01:37:49.555Z,6.30
2019-03-22T01:40:18.094Z,6.20
2019-03-22T01:42:46.629Z,5.90
2019-03-22T01:45:16.154Z,6.23
2019-03-22T01:47:44.752Z,6.67
2019-03-22T01:50:13.773Z,7.13
2019-03-22T01:52:42.339Z,7.53
2019-03-22T01:55:11.222Z,9.03
2019-03-22T01:57:52.589Z,7.73
2019-03-22T02:00:13.083Z,14.47
2019-03-22T02:02:41.771Z,14.10
2019-03-22T02:05:10.504Z,7.33
2019-03-22T02:07:39.096Z,8.37
2019-03-22T02:10:08.913Z,5.90
2019-03-22T02:12:37.489Z,6.17
2019-03-22T02:15:09.283Z,6.83
2019-03-22T02:17:38.234Z,7.07
2019-03-22T02:20:08.370Z,9.87
2019-03-22T02:22:36.955Z,11.47
2019-03-22T02:25:06.697Z,15.57
2019-03-22T02:27:35.372Z,18.67
2019-03-22T02:30:05.121Z,15.43
2019-03-22T02:32:33.660Z,10.50
2019-03-22T02:35:02.284Z,8.07
2019-03-22T02:37:30.836Z,8.67
2019-03-22T02:39:59.455Z,7.40
2019-03-22T02:42:28.052Z,7.03
2019-03-22T02:44:56.657Z,6.90
2019-03-22T02:47:25.271Z,6.83
2019-03-22T02:49:53.858Z,7.43
2019-03-22T02:52:22.454Z,7.87
2019-03-22T02:54:51.036Z,9.43
2019-03-22T02:57:19.662Z,9.80
2019-03-22T02:59:50.119Z,9.77
2019-03-22T03:02:18.713Z,10.13
2019-03-22T03:04:47.345Z,8.77
2019-03-22T03:07:15.934Z,7.77
2019-03-22T03:09:46.172Z,6.97
2019-03-22T03:12:14.718Z,7.03
2019-03-22T03:14:43.292Z,6.33
2019-03-22T03:17:11.844Z,6.20
2019-03-22T03:19:40.476Z,6.20
2019-03-22T03:22:09.115Z,5.70
2019-03-22T03:24:38.059Z,6.70
2019-03-22T03:27:06.658Z,6.30
2019-03-22T03:29:35.273Z,6.90
2019-03-22T03:32:04.047Z,6.57
2019-03-22T03:34:32.775Z,6.13
2019-03-22T03:37:01.360Z,5.57
2019-03-22T03:39:30.374Z,6.67
2019-03-22T03:41:58.858Z,5.60
2019-03-22T03:44:27.476Z,5.83
2019-03-22T03:46:56.074Z,5.53
2019-03-22T03:49:24.710Z,5.57
2019-03-22T03:51:53.272Z,6.20
2019-03-22T03:54:21.887Z,6.23
2019-03-22T03:56:50.536Z,6.27
2019-03-22T04:01:57.481Z,6.20
2019-03-22T04:04:26.078Z,6.10
2019-03-22T04:06:59.971Z,7.60
2019-03-22T04:09:28.539Z,6.07
2019-03-22T04:11:57.284Z,6.50
2019-03-22T04:14:25.884Z,5.73
2019-03-22T04:16:59.661Z,6.03
2019-03-22T04:19:28.335Z,6.30
2019-03-22T04:22:00.803Z,8.00
2019-03-22T04:24:29.433Z,9.00
2019-03-22T04:26:58.065Z,9.70
2019-03-22T04:29:26.770Z,8.70
2019-03-22T04:31:55.350Z,9.10
2019-03-22T04:34:23.996Z,8.00
2019-03-22T04:37:16.891Z,8.07
2019-03-22T04:39:45.514Z,7.63
2019-03-22T04:42:14.167Z,7.00
2019-03-22T04:44:42.804Z,6.73
2019-03-22T04:47:13.660Z,7.03
2019-03-22T04:49:43.258Z,5.77
2019-03-22T04:52:12.433Z,5.93
2019-03-22T04:54:41.876Z,5.87
2019-03-22T04:57:12.259Z,6.23
2019-03-22T04:59:43.094Z,5.30
2019-03-22T05:02:12.205Z,6.67
2019-03-22T05:04:43.558Z,5.63
2019-03-22T05:07:12.416Z,6.87
2019-03-22T05:09:42.157Z,6.23
2019-03-22T05:12:14.239Z,6.97
2019-03-22T05:14:45.057Z,7.20
2019-03-22T05:17:14.247Z,6.80
2019-03-22T05:19:48.875Z,7.20
2019-03-22T05:22:19.491Z,6.77
2019-03-22T05:24:48.265Z,6.10
2019-03-22T05:27:22.745Z,6.17
2019-03-22T05:29:54.960Z,6.57
2019-03-22T05:32:23.657Z,7.47
2019-03-22T05:34:52.229Z,6.03
2019-03-22T05:37:25.815Z,6.40
2019-03-22T05:39:54.391Z,7.00
2019-03-22T05:42:22.990Z,6.33
2019-03-22T05:44:51.704Z,8.37
2019-03-22T05:47:20.283Z,7.80
2019-03-22T05:49:48.893Z,8.73
2019-03-22T05:52:17.482Z,7.43
2019-03-22T05:54:46.046Z,6.60
2019-03-22T05:57:14.685Z,14.70
2019-03-22T05:59:43.414Z,28.90
2019-03-22T06:02:12.056Z,51.73
2019-03-22T06:04:40.715Z,9.83
2019-03-22T06:07:09.317Z,10.93
2019-03-22T06:09:37.920Z,21.87
2019-03-22T06:12:06.504Z,41.60
2019-03-22T06:14:35.111Z,8.23
2019-03-22T06:17:03.875Z,11.33
2019-03-22T06:19:32.525Z,12.20
2019-03-22T06:22:01.039Z,15.87
2019-03-22T06:24:29.645Z,15.57
2019-03-22T06:27:17.443Z,39.13
2019-03-22T06:29:54.109Z,13.07
2019-03-22T06:32:16.558Z,12.63
2019-03-22T06:34:45.169Z,13.30
2019-03-22T06:37:13.935Z,8.40
2019-03-22T06:39:42.535Z,7.23
2019-03-22T06:42:11.110Z,7.97
2019-03-22T06:44:39.781Z,7.90
2019-03-22T06:47:27.579Z,7.37
2019-03-22T06:49:56.173Z,7.30
2019-03-22T06:52:24.784Z,7.37
2019-03-22T06:54:53.438Z,8.10
2019-03-22T06:57:22.021Z,7.77
2019-03-22T06:59:50.635Z,7.67
2019-03-22T07:02:20.793Z,7.50
2019-03-22T07:04:49.387Z,7.40
2019-03-22T07:07:17.984Z,7.80
2019-03-22T07:09:46.659Z,6.87
2019-03-22T07:12:15.222Z,6.40
2019-03-22T07:14:43.845Z,6.80
2019-03-22T07:17:12.405Z,7.07
2019-03-22T07:19:41.034Z,6.63
2019-03-22T07:22:09.632Z,6.83
2019-03-22T07:24:38.240Z,8.03
2019-03-22T07:27:06.934Z,8.37
2019-03-22T07:29:35.497Z,8.87
2019-03-22T07:32:04.125Z,8.47
2019-03-22T07:34:32.687Z,8.93
2019-03-22T07:37:01.277Z,8.30
2019-03-22T07:39:29.854Z,8.27
2019-03-22T07:41:58.497Z,7.47
2019-03-22T07:44:27.104Z,7.43
2019-03-22T07:46:55.925Z,8.13
2019-03-22T07:49:24.485Z,7.37
2019-03-22T07:51:53.131Z,7.30
2019-03-22T07:54:21.786Z,7.33
2019-03-22T07:56:50.348Z,7.57
2019-03-22T07:59:18.955Z,7.43
2019-03-22T08:01:47.574Z,7.43
2019-03-22T08:04:16.234Z,7.13
2019-03-22T08:06:44.848Z,7.77
2019-03-22T08:09:13.415Z,7.70
2019-03-22T08:11:42.147Z,7.20
2019-03-22T08:14:10.748Z,7.37
2019-03-22T08:16:39.317Z,6.83
2019-03-22T08:19:07.871Z,6.73
2019-03-22T08:21:36.508Z,7.50
2019-03-22T08:24:05.097Z,6.77
2019-03-22T08:26:33.711Z,7.20
2019-03-22T08:29:02.304Z,7.03
2019-03-22T08:31:30.894Z,7.60
2019-03-22T08:33:59.493Z,7.73
2019-03-22T08:36:28.195Z,7.43
2019-03-22T08:38:56.704Z,7.83
2019-03-22T08:41:25.292Z,7.87
2019-03-22T08:43:53.846Z,8.83
2019-03-22T08:46:22.529Z,7.70
2019-03-22T08:48:51.059Z,8.00
2019-03-22T08:51:19.660Z,8.00
2019-03-22T08:53:55.177Z,7.57
2019-03-22T08:56:18.812Z,8.07
2019-03-22T08:58:47.375Z,7.97
2019-03-22T09:01:16.043Z,8.13
2019-03-22T09:03:44.746Z,8.00
2019-03-22T09:06:13.324Z,8.50
2019-03-22T09:08:41.930Z,7.67
2019-03-22T09:11:10.562Z,7.77
2019-03-22T09:13:39.104Z,7.90
2019-03-22T09:16:14.053Z,7.80
2019-03-22T09:18:42.660Z,7.80
2019-03-22T09:21:11.247Z,9.03
2019-03-22T09:23:39.859Z,7.80
2019-03-22T09:26:09.754Z,9.33
2019-03-22T09:28:38.344Z,8.27
2019-03-22T09:31:10.777Z,7.93
2019-03-22T09:33:37.417Z,7.50
2019-03-22T09:36:05.989Z,7.73
2019-03-22T09:38:34.561Z,7.83
2019-03-22T09:41:03.187Z,7.23
2019-03-22T09:43:31.901Z,7.20
2019-03-22T09:46:00.568Z,7.47
2019-03-22T09:48:29.197Z,7.70
2019-03-22T09:50:57.834Z,8.10
2019-03-22T09:53:26.658Z,8.00
2019-03-22T09:55:55.291Z,7.60
2019-03-22T09:58:23.908Z,14.03
2019-03-22T10:00:52.494Z,8.03
2019-03-22T10:03:21.222Z,7.87
2019-03-22T10:05:49.870Z,8.20
2019-03-22T10:08:18.461Z,8.30
2019-03-22T10:10:47.097Z,6.83
2019-03-22T10:13:15.703Z,8.20
2019-03-22T10:15:44.332Z,7.97
2019-03-22T10:18:12.998Z,7.37
2019-03-22T10:20:41.624Z,7.63
2019-03-22T10:23:10.263Z,8.20
2019-03-22T10:25:38.924Z,7.00
2019-03-22T10:28:07.582Z,6.87
2019-03-22T10:30:36.134Z,7.57
2019-03-22T10:33:05.142Z,7.73
2019-03-22T10:35:33.749Z,7.47
2019-03-22T10:38:04.783Z,7.60
2019-03-22T10:40:32.848Z,8.00
2019-03-22T10:43:01.450Z,7.50
2019-03-22T10:45:30.096Z,7.73
2019-03-22T10:47:58.860Z,6.97
2019-03-22T10:50:27.663Z,7.80
2019-03-22T10:52:56.319Z,8.33
2019-03-22T10:55:30.189Z,8.35
2019-03-22T10:57:56.186Z,7.22
2019-03-22T11:00:24.892Z,7.70
2019-03-22T11:02:53.547Z,7.25
2019-03-22T11:05:22.105Z,7.08
2019-03-22T11:07:50.689Z,6.40
2019-03-22T11:10:19.238Z,6.42
2019-03-22T11:12:47.865Z,6.30
2019-03-22T11:15:16.429Z,6.58
2019-03-22T11:17:45.019Z,6.40
2019-03-22T11:20:14.476Z,5.78
2019-03-22T11:22:43.082Z,6.28
2019-03-22T11:25:12.026Z,6.62
2019-03-22T11:27:40.576Z,6.45
2019-03-22T11:30:12.904Z,5.72
2019-03-22T11:32:41.518Z,6.47
2019-03-22T11:35:10.572Z,5.85
2019-03-22T11:37:39.142Z,5.85
2019-03-22T11:40:10.072Z,6.37
2019-03-22T11:42:38.682Z,6.08
2019-03-22T11:45:10.614Z,5.80
2019-03-22T11:47:39.341Z,5.62
2019-03-22T11:50:08.910Z,5.00
2019-03-22T11:52:37.615Z,5.58
2019-03-22T11:55:07.781Z,5.20
2019-03-22T11:57:36.386Z,5.10
2019-03-22T12:00:12.790Z,4.85
2019-03-22T12:02:41.359Z,4.87
2019-03-22T12:05:10.367Z,4.53
2019-03-22T12:07:39.024Z,4.80
2019-03-22T12:10:08.122Z,4.90
2019-03-22T12:12:36.723Z,4.70
2019-03-22T12:15:08.156Z,4.42
2019-03-22T12:17:36.824Z,4.30
2019-03-22T12:20:07.648Z,4.78
2019-03-22T12:22:36.231Z,4.40
2019-03-22T12:25:06.068Z,4.50
2019-03-22T12:27:36.844Z,4.45
2019-03-22T12:30:09.687Z,4.60
2019-03-22T12:32:38.347Z,4.65
2019-03-22T12:35:07.814Z,4.40
2019-03-22T12:37:36.394Z,4.10
2019-03-22T12:40:06.392Z,4.17
2019-03-22T12:42:35.025Z,3.95
2019-03-22T12:45:05.865Z,3.60
2019-03-22T12:47:34.478Z,3.72
2019-03-22T12:50:03.432Z,4.70
2019-03-22T12:52:31.981Z,3.83
2019-03-22T12:55:00.660Z,3.45
2019-03-22T12:57:29.303Z,2.98
2019-03-22T12:59:57.870Z,3.20
2019-03-22T13:02:26.829Z,2.87
2019-03-22T13:04:56.406Z,3.05
2019-03-22T13:07:24.998Z,3.47
2019-03-22T13:09:53.556Z,2.98
2019-03-22T13:12:22.212Z,3.30
2019-03-22T13:14:50.800Z,3.00
2019-03-22T13:17:19.406Z,3.20
2019-03-22T13:19:47.981Z,3.40
2019-03-22T13:22:16.595Z,3.15
2019-03-22T13:24:45.305Z,3.75
2019-03-22T13:27:13.975Z,3.60
2019-03-22T13:29:42.580Z,3.47
2019-03-22T13:32:11.204Z,5.08
2019-03-22T13:34:39.866Z,4.15
2019-03-22T13:37:08.531Z,5.10
2019-03-22T13:39:37.152Z,3.95
2019-03-22T13:42:05.727Z,3.55
2019-03-22T13:44:34.359Z,3.50
2019-03-22T13:47:02.939Z,3.60
2019-03-22T13:49:31.567Z,3.58
2019-03-22T13:52:00.202Z,4.20
2019-03-22T13:54:28.828Z,3.67
2019-03-22T13:56:57.448Z,3.67
2019-03-22T13:59:26.028Z,4.53
2019-03-22T14:01:54.604Z,6.80
2019-03-22T14:04:23.158Z,3.80
2019-03-22T14:06:51.765Z,4.28
2019-03-22T14:09:20.365Z,3.90
2019-03-22T14:11:48.957Z,4.50
2019-03-22T14:14:17.591Z,7.37
2019-03-22T14:16:46.270Z,3.77
2019-03-22T14:19:14.841Z,8.08
2019-03-22T14:21:43.358Z,3.50
2019-03-22T14:24:11.961Z,4.25
2019-03-22T14:26:40.783Z,3.35
2019-03-22T14:29:09.363Z,12.40
2019-03-22T14:31:37.929Z,14.33
2019-03-22T14:34:06.536Z,4.55
2019-03-22T14:36:35.203Z,6.53
2019-03-22T14:39:06.232Z,3.90
2019-03-22T14:41:34.852Z,4.90
2019-03-22T14:44:03.609Z,4.58
2019-03-22T14:46:32.222Z,6.00
2019-03-22T14:49:00.778Z,4.03
2019-03-22T14:51:29.416Z,4.20
2019-03-22T14:53:57.997Z,10.10
2019-03-22T14:56:26.598Z,3.50
2019-03-22T14:58:55.204Z,3.90
2019-03-22T15:01:23.959Z,6.03
2019-03-22T15:03:55.039Z,11.05
2019-03-22T15:06:23.843Z,4.12
2019-03-22T15:08:52.482Z,4.58
2019-03-22T15:11:21.127Z,4.87
2019-03-22T15:14:02.653Z,5.47
2019-03-22T15:17:00.219Z,8.33
2019-03-22T15:20:04.847Z,5.30
2019-03-22T15:22:42.066Z,4.92
2019-03-22T15:25:33.714Z,6.70
2019-03-22T15:28:30.307Z,4.70
2019-03-22T15:31:25.663Z,4.55
2019-03-22T15:34:15.518Z,6.60
2019-03-22T15:37:09.500Z,5.80
2019-03-22T15:40:12.816Z,3.60
2019-03-22T15:42:43.944Z,3.52
2019-03-22T15:45:13.148Z,3.40
2019-03-22T15:47:41.858Z,3.87
2019-03-22T15:50:14.522Z,3.87
2019-03-22T15:52:43.146Z,3.57
2019-03-22T15:55:14.508Z,3.60
2019-03-22T15:57:43.116Z,3.40
2019-03-22T16:00:16.070Z,4.60
2019-03-22T16:02:47.282Z,3.80
2019-03-22T16:05:17.376Z,4.37
2019-03-22T16:07:46.031Z,4.50
2019-03-22T16:10:14.646Z,4.80
2019-03-22T16:12:43.225Z,4.87
2019-03-22T16:15:12.014Z,4.90
2019-03-22T16:17:40.701Z,3.93
2019-03-22T16:20:09.863Z,3.97
2019-03-22T16:22:38.512Z,4.90
2019-03-22T16:25:08.383Z,4.47
2019-03-22T16:27:36.973Z,4.33
2019-03-22T16:30:06.782Z,3.70
2019-03-22T16:32:35.541Z,3.93
2019-03-22T16:35:05.510Z,5.27
2019-03-22T16:37:34.125Z,4.00
2019-03-22T16:40:04.598Z,3.70
2019-03-22T16:42:33.440Z,5.57
2019-03-22T16:45:02.082Z,4.37
2019-03-22T16:47:31.554Z,4.00
2019-03-22T16:50:00.105Z,3.90
2019-03-22T16:52:29.189Z,3.83
2019-03-22T16:54:57.849Z,4.07
2019-03-22T16:57:26.549Z,3.70
2019-03-22T16:59:55.141Z,3.70
2019-03-22T17:02:23.903Z,4.53
2019-03-22T17:04:52.604Z,3.60
2019-03-22T17:07:26.428Z,4.20
2019-03-22T17:09:55.374Z,3.90
2019-03-22T17:12:24.278Z,4.33
2019-03-22T17:14:52.810Z,9.30
2019-03-22T17:17:21.419Z,11.03
2019-03-22T17:19:50.045Z,13.50
2019-03-22T17:22:18.661Z,16.77
2019-03-22T17:24:47.255Z,24.77
2019-03-22T17:27:15.842Z,26.20
2019-03-22T17:29:44.478Z,22.17
2019-03-22T17:32:13.440Z,20.30
2019-03-22T17:34:42.097Z,10.30
2019-03-22T17:37:10.690Z,6.83
2019-03-22T17:39:39.594Z,6.80
2019-03-22T17:42:08.201Z,7.67
2019-03-22T17:44:36.976Z,9.57
2019-03-22T17:47:05.897Z,8.67
2019-03-22T17:49:34.587Z,6.40
2019-03-22T17:52:03.788Z,6.20
2019-03-22T17:54:32.484Z,6.10
2019-03-22T17:57:01.327Z,6.47
2019-03-22T17:59:29.910Z,4.47
2019-03-22T18:01:58.564Z,5.30
2019-03-22T18:04:27.193Z,4.50
2019-03-22T18:06:55.819Z,4.90
2019-03-22T18:09:24.391Z,5.03
2019-03-22T18:11:53.064Z,4.67
2019-03-22T18:14:22.155Z,4.90
2019-03-22T18:16:50.774Z,4.53
2019-03-22T18:19:19.385Z,6.90
2019-03-22T18:21:48.016Z,8.63
2019-03-22T18:24:16.551Z,12.70
2019-03-22T18:26:45.230Z,7.93
2019-03-22T18:29:13.815Z,8.43
2019-03-22T18:31:42.406Z,5.60
2019-03-22T18:34:10.977Z,26.57
2019-03-22T18:36:39.736Z,10.03
2019-03-22T18:39:11.291Z,10.67
2019-03-22T18:41:39.819Z,10.90
2019-03-22T18:44:08.701Z,10.00
2019-03-22T18:46:37.298Z,10.07
2019-03-22T18:49:08.451Z,9.13
2019-03-22T18:51:37.095Z,10.67
2019-03-22T18:54:05.859Z,11.50
2019-03-22T18:56:34.440Z,12.47
2019-03-22T18:59:03.186Z,12.53
2019-03-22T19:01:31.966Z,13.47
2019-03-22T19:04:03.330Z,13.30
2019-03-22T19:06:31.957Z,13.43
2019-03-22T19:09:00.546Z,12.10
2019-03-22T19:11:29.155Z,10.40
2019-03-22T19:13:57.763Z,9.30
2019-03-22T19:16:26.913Z,8.70
2019-03-22T19:18:55.914Z,8.70
2019-03-22T19:21:25.869Z,16.27
2019-03-22T19:23:54.735Z,15.93
2019-03-22T19:26:25.928Z,15.83
2019-03-22T19:28:54.797Z,10.70
2019-03-22T19:31:23.609Z,9.90
2019-03-22T19:33:52.299Z,7.77
2019-03-22T19:36:20.913Z,8.27
2019-03-22T19:38:49.682Z,8.90
2019-03-22T19:41:19.824Z,7.43
2019-03-22T19:43:48.506Z,6.67
2019-03-22T19:46:17.368Z,7.83
2019-03-22T19:48:45.999Z,6.83
2019-03-22T19:51:14.760Z,6.77
2019-03-22T19:53:43.439Z,7.90
2019-03-22T19:56:12.030Z,8.83
2019-03-22T19:58:40.756Z,8.27
2019-03-22T20:01:09.459Z,9.50
2019-03-22T20:03:38.099Z,9.83
2019-03-22T20:06:06.764Z,9.63
2019-03-22T20:08:35.538Z,13.60
2019-03-22T20:11:04.202Z,10.57
2019-03-22T20:13:32.811Z,9.93
2019-03-22T20:16:01.525Z,8.23
2019-03-22T20:18:30.195Z,8.23
2019-03-22T20:20:59.953Z,7.67
2019-03-22T20:23:28.534Z,7.47
2019-03-22T20:25:57.187Z,6.67
2019-03-22T20:28:25.983Z,7.23
2019-03-22T20:30:55.250Z,6.37
2019-03-22T20:33:23.972Z,6.63
2019-03-22T20:35:52.749Z,6.93
2019-03-22T20:38:21.438Z,8.03
2019-03-22T20:40:50.501Z,11.37
2019-03-22T20:43:21.096Z,11.37
2019-03-22T20:45:49.820Z,10.93
2019-03-22T20:48:18.864Z,12.20
2019-03-22T20:50:47.574Z,11.27
2019-03-22T20:53:16.310Z,8.73
2019-03-22T20:55:46.063Z,9.10
2019-03-22T20:58:14.868Z,7.40
2019-03-22T21:00:43.573Z,6.97
2019-03-22T21:03:12.164Z,6.60
2019-03-22T21:05:40.796Z,6.20
2019-03-22T21:08:09.839Z,7.67
2019-03-22T21:10:38.514Z,8.03
2019-03-22T21:13:07.174Z,8.67
2019-03-22T21:15:36.842Z,10.20
2019-03-22T21:18:05.621Z,9.37
2019-03-22T21:20:34.473Z,9.33
2019-03-22T21:23:03.093Z,7.47
2019-03-22T21:25:31.877Z,5.90
2019-03-22T21:28:05.715Z,6.07
2019-03-22T21:30:34.378Z,6.67
2019-03-22T21:33:03.081Z,6.00
2019-03-22T21:35:37.285Z,6.10
2019-03-22T21:38:10.369Z,6.80
2019-03-22T21:40:32.966Z,6.17
2019-03-22T21:43:01.619Z,6.00
2019-03-22T21:45:30.269Z,5.73
2019-03-22T21:47:58.967Z,6.00
2019-03-22T21:50:27.625Z,5.73
2019-03-22T21:52:56.224Z,6.87
2019-03-22T21:55:24.842Z,5.77
2019-03-22T21:57:53.486Z,5.80
2019-03-22T22:00:22.078Z,6.20
2019-03-22T22:02:50.706Z,5.37
2019-03-22T22:05:19.425Z,6.00
2019-03-22T22:07:48.993Z,5.73
2019-03-22T22:10:17.662Z,6.77
2019-03-22T22:12:46.444Z,6.20
2019-03-22T22:15:15.012Z,6.80
2019-03-22T22:17:43.770Z,6.00
2019-03-22T22:20:12.393Z,6.00
2019-03-22T22:22:41.253Z,6.30
2019-03-22T22:25:09.917Z,7.57
2019-03-22T22:27:43.742Z,6.80
2019-03-22T22:30:12.693Z,6.80
2019-03-22T22:32:41.262Z,6.93
2019-03-22T22:35:11.123Z,7.00
2019-03-22T22:37:44.998Z,6.60
2019-03-22T22:40:13.712Z,7.20
2019-03-22T22:42:42.273Z,7.20
2019-03-22T22:45:11.001Z,7.70
2019-03-22T22:47:39.669Z,6.50
2019-03-22T22:50:09.150Z,6.93
2019-03-22T22:52:37.800Z,6.30
2019-03-22T22:55:07.693Z,5.90
2019-03-22T22:57:36.575Z,7.00
2019-03-22T23:00:09.781Z,7.07
2019-03-22T23:02:38.360Z,7.03
2019-03-22T23:05:07.052Z,6.23
2019-03-22T23:07:35.629Z,7.53
2019-03-22T23:10:04.878Z,6.17
2019-03-22T23:12:33.570Z,7.13
2019-03-22T23:15:02.215Z,7.00
2019-03-22T23:17:30.817Z,6.70
2019-03-22T23:19:59.385Z,6.50
2019-03-22T23:22:28.023Z,6.07
2019-03-22T23:24:56.648Z,6.80
2019-03-22T23:27:25.208Z,7.03
2019-03-22T23:29:53.684Z,6.53
2019-03-22T23:32:22.294Z,6.93
2019-03-22T23:34:58.701Z,6.50
2019-03-22T23:37:21.384Z,6.90
2019-03-22T23:39:50.026Z,7.53
2019-03-22T23:42:18.629Z,7.73
2019-03-22T23:44:48.681Z,6.63
2019-03-22T23:47:17.216Z,6.27
2019-03-22T23:49:45.829Z,7.00
2019-03-22T23:52:14.445Z,6.40
2019-03-22T23:54:43.096Z,7.23
2019-03-22T23:57:11.706Z,7.10
2019-03-22T23:59:40.285Z,8.63
